sensor_id;sensor_type;location;lat;lon;timestamp;temperature;humidity
31443;SHT31;18065;55.876;9.830;2022-12-19T00:01:49;20.19;48.53
31443;SHT31;18065;55.876;9.830;2022-12-19T00:04:17;20.20;48.51
31443;SHT31;18065;55.876;9.830;2022-12-19T00:06:49;20.19;48.52
31443;SHT31;18065;55.876;9.830;2022-12-19T00:09:17;20.20;48.51
31443;SHT31;18065;55.876;9.830;2022-12-19T00:11:46;20.19;48.60
31443;SHT31;18065;55.876;9.830;2022-12-19T00:14:15;20.18;48.57
31443;SHT31;18065;55.876;9.830;2022-12-19T00:16:44;20.19;48.58
31443;SHT31;18065;55.876;9.830;2022-12-19T00:19:13;20.19;48.59
31443;SHT31;18065;55.876;9.830;2022-12-19T00:21:42;20.16;48.64
31443;SHT31;18065;55.876;9.830;2022-12-19T00:24:13;20.18;48.67
31443;SHT31;18065;55.876;9.830;2022-12-19T00:26:42;20.16;48.66
31443;SHT31;18065;55.876;9.830;2022-12-19T00:29:10;20.18;48.67
31443;SHT31;18065;55.876;9.830;2022-12-19T00:31:39;20.16;48.69
31443;SHT31;18065;55.876;9.830;2022-12-19T00:34:08;20.18;48.68
31443;SHT31;18065;55.876;9.830;2022-12-19T00:36:37;20.19;48.71
31443;SHT31;18065;55.876;9.830;2022-12-19T00:39:06;20.18;48.71
31443;SHT31;18065;55.876;9.830;2022-12-19T00:41:39;20.15;48.73
31443;SHT31;18065;55.876;9.830;2022-12-19T00:44:10;20.19;48.71
31443;SHT31;18065;55.876;9.830;2022-12-19T00:46:39;20.16;48.72
31443;SHT31;18065;55.876;9.830;2022-12-19T00:49:08;20.18;48.72
31443;SHT31;18065;55.876;9.830;2022-12-19T00:51:37;20.16;48.71
31443;SHT31;18065;55.876;9.830;2022-12-19T00:54:05;20.18;48.72
31443;SHT31;18065;55.876;9.830;2022-12-19T00:56:35;20.15;48.72
31443;SHT31;18065;55.876;9.830;2022-12-19T00:59:06;20.15;48.74
31443;SHT31;18065;55.876;9.830;2022-12-19T01:01:37;20.15;48.72
31443;SHT31;18065;55.876;9.830;2022-12-19T01:04:09;20.18;48.79
31443;SHT31;18065;55.876;9.830;2022-12-19T01:06:39;20.15;48.72
31443;SHT31;18065;55.876;9.830;2022-12-19T01:09:08;20.15;48.75
31443;SHT31;18065;55.876;9.830;2022-12-19T01:11:38;20.16;48.76
31443;SHT31;18065;55.876;9.830;2022-12-19T01:14:22;20.13;48.77
31443;SHT31;18065;55.876;9.830;2022-12-19T01:16:51;20.13;48.79
31443;SHT31;18065;55.876;9.830;2022-12-19T01:19:19;20.12;48.82
31443;SHT31;18065;55.876;9.830;2022-12-19T01:21:48;20.10;48.78
31443;SHT31;18065;55.876;9.830;2022-12-19T01:24:17;20.13;48.75
31443;SHT31;18065;55.876;9.830;2022-12-19T01:26:46;20.13;48.80
31443;SHT31;18065;55.876;9.830;2022-12-19T01:29:14;20.12;48.88
31443;SHT31;18065;55.876;9.830;2022-12-19T01:31:46;20.12;48.91
31443;SHT31;18065;55.876;9.830;2022-12-19T01:34:14;20.10;48.94
31443;SHT31;18065;55.876;9.830;2022-12-19T01:36:43;20.16;48.95
31443;SHT31;18065;55.876;9.830;2022-12-19T01:39:12;20.12;48.96
31443;SHT31;18065;55.876;9.830;2022-12-19T01:41:40;20.15;48.93
31443;SHT31;18065;55.876;9.830;2022-12-19T01:44:09;20.13;48.96
31443;SHT31;18065;55.876;9.830;2022-12-19T01:46:40;20.15;49.00
31443;SHT31;18065;55.876;9.830;2022-12-19T01:49:14;20.13;49.00
31443;SHT31;18065;55.876;9.830;2022-12-19T01:51:47;20.12;49.06
31443;SHT31;18065;55.876;9.830;2022-12-19T01:54:19;20.12;49.05
31443;SHT31;18065;55.876;9.830;2022-12-19T01:56:53;20.15;49.02
31443;SHT31;18065;55.876;9.830;2022-12-19T01:59:26;20.13;48.95
31443;SHT31;18065;55.876;9.830;2022-12-19T02:02:00;20.12;49.00
31443;SHT31;18065;55.876;9.830;2022-12-19T02:04:34;20.13;48.93
31443;SHT31;18065;55.876;9.830;2022-12-19T02:07:04;20.15;48.94
31443;SHT31;18065;55.876;9.830;2022-12-19T02:09:35;20.15;48.91
31443;SHT31;18065;55.876;9.830;2022-12-19T02:12:05;20.13;48.90
31443;SHT31;18065;55.876;9.830;2022-12-19T02:14:34;20.15;48.87
31443;SHT31;18065;55.876;9.830;2022-12-19T02:17:09;20.15;48.85
31443;SHT31;18065;55.876;9.830;2022-12-19T02:22:49;20.12;48.86
31443;SHT31;18065;55.876;9.830;2022-12-19T02:25:35;20.13;48.87
31443;SHT31;18065;55.876;9.830;2022-12-19T02:31:06;20.12;48.85
31443;SHT31;18065;55.876;9.830;2022-12-19T02:33:41;20.10;48.80
31443;SHT31;18065;55.876;9.830;2022-12-19T02:36:14;20.13;48.76
31443;SHT31;18065;55.876;9.830;2022-12-19T02:38:46;20.15;48.80
31443;SHT31;18065;55.876;9.830;2022-12-19T02:41:20;20.12;48.78
31443;SHT31;18065;55.876;9.830;2022-12-19T02:43:51;20.06;48.82
31443;SHT31;18065;55.876;9.830;2022-12-19T02:46:24;20.09;48.79
31443;SHT31;18065;55.876;9.830;2022-12-19T02:48:53;20.12;48.78
31443;SHT31;18065;55.876;9.830;2022-12-19T02:51:22;20.08;48.74
31443;SHT31;18065;55.876;9.830;2022-12-19T02:53:51;20.10;48.70
31443;SHT31;18065;55.876;9.830;2022-12-19T02:56:33;20.10;48.75
31443;SHT31;18065;55.876;9.830;2022-12-19T02:59:13;20.08;48.67
31443;SHT31;18065;55.876;9.830;2022-12-19T03:01:50;20.06;48.66
31443;SHT31;18065;55.876;9.830;2022-12-19T03:04:30;20.08;48.61
31443;SHT31;18065;55.876;9.830;2022-12-19T03:07:10;20.08;48.57
31443;SHT31;18065;55.876;9.830;2022-12-19T03:09:45;20.09;48.59
31443;SHT31;18065;55.876;9.830;2022-12-19T03:12:18;20.09;48.61
31443;SHT31;18065;55.876;9.830;2022-12-19T03:14:49;20.06;48.72
31443;SHT31;18065;55.876;9.830;2022-12-19T03:17:21;20.08;48.82
31443;SHT31;18065;55.876;9.830;2022-12-19T03:19:50;20.09;48.83
31443;SHT31;18065;55.876;9.830;2022-12-19T03:22:19;20.08;48.84
31443;SHT31;18065;55.876;9.830;2022-12-19T03:24:48;20.08;48.84
31443;SHT31;18065;55.876;9.830;2022-12-19T03:27:20;20.10;48.87
31443;SHT31;18065;55.876;9.830;2022-12-19T03:29:54;20.09;48.85
31443;SHT31;18065;55.876;9.830;2022-12-19T03:32:27;20.10;48.84
31443;SHT31;18065;55.876;9.830;2022-12-19T03:35:00;20.10;48.83
31443;SHT31;18065;55.876;9.830;2022-12-19T03:37:33;20.12;48.87
31443;SHT31;18065;55.876;9.830;2022-12-19T03:40:08;20.12;48.78
31443;SHT31;18065;55.876;9.830;2022-12-19T03:42:39;20.12;48.75
31443;SHT31;18065;55.876;9.830;2022-12-19T03:45:22;20.12;48.81
31443;SHT31;18065;55.876;9.830;2022-12-19T03:47:57;20.10;48.89
31443;SHT31;18065;55.876;9.830;2022-12-19T03:50:33;20.10;48.81
31443;SHT31;18065;55.876;9.830;2022-12-19T03:53:10;20.10;48.82
31443;SHT31;18065;55.876;9.830;2022-12-19T03:55:47;20.12;48.89
31443;SHT31;18065;55.876;9.830;2022-12-19T03:58:21;20.13;48.84
31443;SHT31;18065;55.876;9.830;2022-12-19T04:00:54;20.12;48.81
31443;SHT31;18065;55.876;9.830;2022-12-19T04:03:26;20.12;48.83
31443;SHT31;18065;55.876;9.830;2022-12-19T04:05:57;20.13;48.79
31443;SHT31;18065;55.876;9.830;2022-12-19T04:08:27;20.10;48.78
31443;SHT31;18065;55.876;9.830;2022-12-19T04:11:01;20.13;48.76
31443;SHT31;18065;55.876;9.830;2022-12-19T04:13:33;20.13;48.70
31443;SHT31;18065;55.876;9.830;2022-12-19T04:16:09;20.09;48.75
31443;SHT31;18065;55.876;9.830;2022-12-19T04:18:47;20.13;48.72
31443;SHT31;18065;55.876;9.830;2022-12-19T04:21:24;20.12;48.71
31443;SHT31;18065;55.876;9.830;2022-12-19T04:23:57;20.13;48.77
31443;SHT31;18065;55.876;9.830;2022-12-19T04:26:30;20.13;48.73
31443;SHT31;18065;55.876;9.830;2022-12-19T04:29:01;20.12;48.77
31443;SHT31;18065;55.876;9.830;2022-12-19T04:31:35;20.12;48.69
31443;SHT31;18065;55.876;9.830;2022-12-19T04:34:07;20.10;48.70
31443;SHT31;18065;55.876;9.830;2022-12-19T04:36:36;20.10;48.67
31443;SHT31;18065;55.876;9.830;2022-12-19T04:39:04;20.10;48.67
31443;SHT31;18065;55.876;9.830;2022-12-19T04:41:33;20.12;48.69
31443;SHT31;18065;55.876;9.830;2022-12-19T04:44:02;20.10;48.62
31443;SHT31;18065;55.876;9.830;2022-12-19T04:46:31;20.09;48.61
31443;SHT31;18065;55.876;9.830;2022-12-19T04:48:59;20.09;48.63
31443;SHT31;18065;55.876;9.830;2022-12-19T04:51:31;20.10;48.63
31443;SHT31;18065;55.876;9.830;2022-12-19T04:53:59;20.09;48.58
31443;SHT31;18065;55.876;9.830;2022-12-19T04:56:28;20.09;48.57
31443;SHT31;18065;55.876;9.830;2022-12-19T04:58:58;20.09;48.55
31443;SHT31;18065;55.876;9.830;2022-12-19T05:01:27;20.09;48.53
31443;SHT31;18065;55.876;9.830;2022-12-19T05:03:56;20.09;48.52
31443;SHT31;18065;55.876;9.830;2022-12-19T05:06:24;20.09;48.50
31443;SHT31;18065;55.876;9.830;2022-12-19T05:08:56;20.08;48.50
31443;SHT31;18065;55.876;9.830;2022-12-19T05:11:24;20.06;48.50
31443;SHT31;18065;55.876;9.830;2022-12-19T05:13:53;20.08;48.49
31443;SHT31;18065;55.876;9.830;2022-12-19T05:16:22;20.08;48.43
31443;SHT31;18065;55.876;9.830;2022-12-19T05:18:52;20.06;48.38
31443;SHT31;18065;55.876;9.830;2022-12-19T05:21:21;20.08;48.96
31443;SHT31;18065;55.876;9.830;2022-12-19T05:23:50;20.08;49.19
31443;SHT31;18065;55.876;9.830;2022-12-19T05:26:21;20.04;49.32
31443;SHT31;18065;55.876;9.830;2022-12-19T05:28:50;20.06;49.37
31443;SHT31;18065;55.876;9.830;2022-12-19T05:31:20;20.09;49.30
31443;SHT31;18065;55.876;9.830;2022-12-19T05:33:49;20.09;49.31
31443;SHT31;18065;55.876;9.830;2022-12-19T05:36:17;20.08;49.32
31443;SHT31;18065;55.876;9.830;2022-12-19T05:38:47;20.10;49.27
31443;SHT31;18065;55.876;9.830;2022-12-19T05:41:18;20.09;49.29
31443;SHT31;18065;55.876;9.830;2022-12-19T05:43:52;20.09;49.22
31443;SHT31;18065;55.876;9.830;2022-12-19T05:46:21;20.09;49.17
31443;SHT31;18065;55.876;9.830;2022-12-19T05:48:52;20.13;49.16
31443;SHT31;18065;55.876;9.830;2022-12-19T05:51:21;20.09;49.11
31443;SHT31;18065;55.876;9.830;2022-12-19T05:53:49;20.12;49.11
31443;SHT31;18065;55.876;9.830;2022-12-19T05:56:20;20.09;49.10
31443;SHT31;18065;55.876;9.830;2022-12-19T05:58:51;20.10;49.27
31443;SHT31;18065;55.876;9.830;2022-12-19T06:01:22;20.10;49.51
31443;SHT31;18065;55.876;9.830;2022-12-19T06:03:51;20.12;49.42
31443;SHT31;18065;55.876;9.830;2022-12-19T06:06:22;20.12;49.45
31443;SHT31;18065;55.876;9.830;2022-12-19T06:08:52;20.12;49.45
31443;SHT31;18065;55.876;9.830;2022-12-19T06:11:21;20.12;49.44
31443;SHT31;18065;55.876;9.830;2022-12-19T06:13:53;20.12;49.44
31443;SHT31;18065;55.876;9.830;2022-12-19T06:16:22;20.13;49.46
31443;SHT31;18065;55.876;9.830;2022-12-19T06:18:51;20.13;49.46
31443;SHT31;18065;55.876;9.830;2022-12-19T06:21:21;20.12;49.45
31443;SHT31;18065;55.876;9.830;2022-12-19T06:23:50;20.15;49.61
31443;SHT31;18065;55.876;9.830;2022-12-19T06:26:19;20.15;49.84
31443;SHT31;18065;55.876;9.830;2022-12-19T06:28:49;20.16;49.97
31443;SHT31;18065;55.876;9.830;2022-12-19T06:31:22;20.15;49.97
31443;SHT31;18065;55.876;9.830;2022-12-19T06:33:53;20.16;50.05
31443;SHT31;18065;55.876;9.830;2022-12-19T06:36:23;20.15;50.00
31443;SHT31;18065;55.876;9.830;2022-12-19T06:38:54;20.18;49.99
31443;SHT31;18065;55.876;9.830;2022-12-19T06:41:23;20.18;49.99
31443;SHT31;18065;55.876;9.830;2022-12-19T06:44:06;20.18;49.99
31443;SHT31;18065;55.876;9.830;2022-12-19T06:46:38;20.16;49.97
31443;SHT31;18065;55.876;9.830;2022-12-19T06:49:09;20.16;49.94
31443;SHT31;18065;55.876;9.830;2022-12-19T06:51:38;20.16;49.86
31443;SHT31;18065;55.876;9.830;2022-12-19T06:54:08;20.13;49.83
31443;SHT31;18065;55.876;9.830;2022-12-19T06:56:38;20.16;49.79
31443;SHT31;18065;55.876;9.830;2022-12-19T06:59:11;20.16;49.79
31443;SHT31;18065;55.876;9.830;2022-12-19T07:01:50;20.18;49.81
31443;SHT31;18065;55.876;9.830;2022-12-19T07:04:25;20.19;49.68
31443;SHT31;18065;55.876;9.830;2022-12-19T07:06:56;20.19;49.60
31443;SHT31;18065;55.876;9.830;2022-12-19T07:09:26;20.18;49.53
31443;SHT31;18065;55.876;9.830;2022-12-19T07:11:56;20.19;49.45
31443;SHT31;18065;55.876;9.830;2022-12-19T07:14:24;20.20;49.61
31443;SHT31;18065;55.876;9.830;2022-12-19T07:16:57;20.22;49.66
31443;SHT31;18065;55.876;9.830;2022-12-19T07:19:27;20.23;49.59
31443;SHT31;18065;55.876;9.830;2022-12-19T07:21:58;20.23;49.47
31443;SHT31;18065;55.876;9.830;2022-12-19T07:24:28;20.25;49.45
31443;SHT31;18065;55.876;9.830;2022-12-19T07:26:57;20.25;49.39
31443;SHT31;18065;55.876;9.830;2022-12-19T07:29:26;20.28;49.39
31443;SHT31;18065;55.876;9.830;2022-12-19T07:31:58;20.26;49.34
31443;SHT31;18065;55.876;9.830;2022-12-19T07:34:26;20.28;49.29
31443;SHT31;18065;55.876;9.830;2022-12-19T07:36:55;20.28;49.17
31443;SHT31;18065;55.876;9.830;2022-12-19T07:39:24;20.29;49.12
31443;SHT31;18065;55.876;9.830;2022-12-19T07:41:53;20.30;49.12
31443;SHT31;18065;55.876;9.830;2022-12-19T07:44:22;20.30;49.13
31443;SHT31;18065;55.876;9.830;2022-12-19T07:46:51;20.32;49.12
31443;SHT31;18065;55.876;9.830;2022-12-19T07:49:22;20.29;49.16
31443;SHT31;18065;55.876;9.830;2022-12-19T07:51:51;20.33;49.18
31443;SHT31;18065;55.876;9.830;2022-12-19T07:54:20;20.34;49.11
31443;SHT31;18065;55.876;9.830;2022-12-19T07:56:48;20.34;49.10
31443;SHT31;18065;55.876;9.830;2022-12-19T07:59:17;20.33;49.10
31443;SHT31;18065;55.876;9.830;2022-12-19T08:01:46;20.33;49.08
31443;SHT31;18065;55.876;9.830;2022-12-19T08:04:15;20.36;49.02
31443;SHT31;18065;55.876;9.830;2022-12-19T08:06:47;20.36;49.02
31443;SHT31;18065;55.876;9.830;2022-12-19T08:09:15;20.37;48.96
31443;SHT31;18065;55.876;9.830;2022-12-19T08:11:44;20.34;48.90
31443;SHT31;18065;55.876;9.830;2022-12-19T08:14:13;20.36;48.94
31443;SHT31;18065;55.876;9.830;2022-12-19T08:16:42;20.36;48.85
31443;SHT31;18065;55.876;9.830;2022-12-19T08:19:11;20.36;48.82
31443;SHT31;18065;55.876;9.830;2022-12-19T08:21:40;20.37;48.72
31443;SHT31;18065;55.876;9.830;2022-12-19T08:24:11;20.37;48.74
31443;SHT31;18065;55.876;9.830;2022-12-19T08:26:42;20.37;48.61
31443;SHT31;18065;55.876;9.830;2022-12-19T08:29:10;20.36;48.59
31443;SHT31;18065;55.876;9.830;2022-12-19T08:31:39;20.34;48.55
31443;SHT31;18065;55.876;9.830;2022-12-19T08:34:08;20.34;48.33
31443;SHT31;18065;55.876;9.830;2022-12-19T08:36:37;20.36;48.28
31443;SHT31;18065;55.876;9.830;2022-12-19T08:39:06;20.34;48.34
31443;SHT31;18065;55.876;9.830;2022-12-19T08:41:38;20.34;48.43
31443;SHT31;18065;55.876;9.830;2022-12-19T08:44:09;20.34;48.35
31443;SHT31;18065;55.876;9.830;2022-12-19T08:46:38;20.33;48.37
31443;SHT31;18065;55.876;9.830;2022-12-19T08:49:07;20.33;48.32
31443;SHT31;18065;55.876;9.830;2022-12-19T08:51:36;20.36;48.30
31443;SHT31;18065;55.876;9.830;2022-12-19T08:54:05;20.33;48.26
31443;SHT31;18065;55.876;9.830;2022-12-19T08:56:34;20.33;48.26
31443;SHT31;18065;55.876;9.830;2022-12-19T08:59:05;20.34;48.18
31443;SHT31;18065;55.876;9.830;2022-12-19T09:01:34;20.34;48.12
31443;SHT31;18065;55.876;9.830;2022-12-19T09:04:03;20.34;48.07
31443;SHT31;18065;55.876;9.830;2022-12-19T09:06:31;20.36;48.06
31443;SHT31;18065;55.876;9.830;2022-12-19T09:09:01;20.33;47.97
31443;SHT31;18065;55.876;9.830;2022-12-19T09:11:30;20.36;47.99
31443;SHT31;18065;55.876;9.830;2022-12-19T09:13:59;20.36;47.96
31443;SHT31;18065;55.876;9.830;2022-12-19T09:16:32;20.33;47.91
31443;SHT31;18065;55.876;9.830;2022-12-19T09:19:01;20.30;47.88
31443;SHT31;18065;55.876;9.830;2022-12-19T09:21:30;20.36;47.90
31443;SHT31;18065;55.876;9.830;2022-12-19T09:23:59;20.34;47.83
31443;SHT31;18065;55.876;9.830;2022-12-19T09:26:29;20.34;47.82
31443;SHT31;18065;55.876;9.830;2022-12-19T09:28:58;20.34;47.81
31443;SHT31;18065;55.876;9.830;2022-12-19T09:31:28;20.33;47.75
31443;SHT31;18065;55.876;9.830;2022-12-19T09:33:59;20.34;47.78
31443;SHT31;18065;55.876;9.830;2022-12-19T09:36:28;20.33;47.79
31443;SHT31;18065;55.876;9.830;2022-12-19T09:38:57;20.33;47.74
31443;SHT31;18065;55.876;9.830;2022-12-19T09:41:50;20.37;47.76
31443;SHT31;18065;55.876;9.830;2022-12-19T09:44:30;20.34;47.76
31443;SHT31;18065;55.876;9.830;2022-12-19T09:47:04;20.36;47.76
31443;SHT31;18065;55.876;9.830;2022-12-19T09:49:42;20.34;47.72
31443;SHT31;18065;55.876;9.830;2022-12-19T09:52:14;20.36;47.67
31443;SHT31;18065;55.876;9.830;2022-12-19T09:54:47;20.34;47.63
31443;SHT31;18065;55.876;9.830;2022-12-19T09:57:19;20.36;47.60
31443;SHT31;18065;55.876;9.830;2022-12-19T09:59:53;20.34;47.54
31443;SHT31;18065;55.876;9.830;2022-12-19T10:02:36;20.33;47.50
31443;SHT31;18065;55.876;9.830;2022-12-19T10:05:15;20.34;47.48
31443;SHT31;18065;55.876;9.830;2022-12-19T10:07:45;20.32;47.44
31443;SHT31;18065;55.876;9.830;2022-12-19T10:10:15;20.30;47.41
31443;SHT31;18065;55.876;9.830;2022-12-19T10:13:11;20.30;47.44
31443;SHT31;18065;55.876;9.830;2022-12-19T10:15:50;20.29;47.34
31443;SHT31;18065;55.876;9.830;2022-12-19T10:18:27;20.29;47.24
31443;SHT31;18065;55.876;9.830;2022-12-19T10:21:05;20.30;47.20
31443;SHT31;18065;55.876;9.830;2022-12-19T10:23:51;20.30;47.20
31443;SHT31;18065;55.876;9.830;2022-12-19T10:26:26;20.30;47.31
31443;SHT31;18065;55.876;9.830;2022-12-19T10:29:09;20.29;47.35
31443;SHT31;18065;55.876;9.830;2022-12-19T10:31:49;20.33;47.38
31443;SHT31;18065;55.876;9.830;2022-12-19T10:34:23;20.32;47.44
31443;SHT31;18065;55.876;9.830;2022-12-19T10:36:57;20.32;47.37
31443;SHT31;18065;55.876;9.830;2022-12-19T10:39:30;20.29;47.34
31443;SHT31;18065;55.876;9.830;2022-12-19T10:42:08;20.29;47.38
31443;SHT31;18065;55.876;9.830;2022-12-19T10:44:40;20.30;47.31
31443;SHT31;18065;55.876;9.830;2022-12-19T10:47:14;20.30;47.36
31443;SHT31;18065;55.876;9.830;2022-12-19T10:49:43;20.30;47.30
31443;SHT31;18065;55.876;9.830;2022-12-19T10:52:44;20.29;47.41
31443;SHT31;18065;55.876;9.830;2022-12-19T10:55:38;20.30;47.37
31443;SHT31;18065;55.876;9.830;2022-12-19T10:58:17;20.30;47.32
31443;SHT31;18065;55.876;9.830;2022-12-19T11:01:02;20.32;47.38
31443;SHT31;18065;55.876;9.830;2022-12-19T11:03:33;20.33;47.19
31443;SHT31;18065;55.876;9.830;2022-12-19T11:06:03;20.36;47.17
31443;SHT31;18065;55.876;9.830;2022-12-19T11:08:35;20.34;47.20
31443;SHT31;18065;55.876;9.830;2022-12-19T11:11:12;20.37;47.29
31443;SHT31;18065;55.876;9.830;2022-12-19T11:13:43;20.40;47.30
31443;SHT31;18065;55.876;9.830;2022-12-19T11:16:13;20.44;47.31
31443;SHT31;18065;55.876;9.830;2022-12-19T11:18:48;20.47;47.24
31443;SHT31;18065;55.876;9.830;2022-12-19T11:21:19;20.47;47.28
31443;SHT31;18065;55.876;9.830;2022-12-19T11:23:55;20.51;47.47
31443;SHT31;18065;55.876;9.830;2022-12-19T11:26:33;20.53;47.60
31443;SHT31;18065;55.876;9.830;2022-12-19T11:29:15;20.56;47.29
31443;SHT31;18065;55.876;9.830;2022-12-19T11:31:46;20.57;47.61
31443;SHT31;18065;55.876;9.830;2022-12-19T11:34:17;20.59;47.57
31443;SHT31;18065;55.876;9.830;2022-12-19T11:36:50;20.66;47.73
31443;SHT31;18065;55.876;9.830;2022-12-19T11:39:38;20.63;47.56
31443;SHT31;18065;55.876;9.830;2022-12-19T11:42:14;20.61;47.59
31443;SHT31;18065;55.876;9.830;2022-12-19T11:44:49;20.64;47.65
31443;SHT31;18065;55.876;9.830;2022-12-19T11:47:29;20.63;47.67
31443;SHT31;18065;55.876;9.830;2022-12-19T11:50:02;20.67;47.44
31443;SHT31;18065;55.876;9.830;2022-12-19T11:52:39;20.67;47.76
31443;SHT31;18065;55.876;9.830;2022-12-19T11:55:18;20.69;47.81
31443;SHT31;18065;55.876;9.830;2022-12-19T11:57:48;20.71;47.70
31443;SHT31;18065;55.876;9.830;2022-12-19T12:00:19;20.70;47.81
31443;SHT31;18065;55.876;9.830;2022-12-19T12:05:43;20.74;47.31
31443;SHT31;18065;55.876;9.830;2022-12-19T12:08:38;20.73;47.88
31443;SHT31;18065;55.876;9.830;2022-12-19T12:11:24;20.71;48.35
31443;SHT31;18065;55.876;9.830;2022-12-19T12:14:01;20.69;47.29
31443;SHT31;18065;55.876;9.830;2022-12-19T12:16:39;20.64;47.69
31443;SHT31;18065;55.876;9.830;2022-12-19T12:19:20;20.61;47.43
31443;SHT31;18065;55.876;9.830;2022-12-19T12:22:00;20.57;47.36
31443;SHT31;18065;55.876;9.830;2022-12-19T12:24:40;20.60;47.20
31443;SHT31;18065;55.876;9.830;2022-12-19T12:27:27;20.60;47.15
31443;SHT31;18065;55.876;9.830;2022-12-19T12:30:03;20.54;47.02
31443;SHT31;18065;55.876;9.830;2022-12-19T12:32:47;20.53;46.70
31443;SHT31;18065;55.876;9.830;2022-12-19T12:35:27;20.56;46.68
31443;SHT31;18065;55.876;9.830;2022-12-19T12:38:08;20.56;46.92
31443;SHT31;18065;55.876;9.830;2022-12-19T12:40:54;20.54;47.07
31443;SHT31;18065;55.876;9.830;2022-12-19T12:43:37;20.54;46.80
31443;SHT31;18065;55.876;9.830;2022-12-19T12:46:12;20.53;46.86
31443;SHT31;18065;55.876;9.830;2022-12-19T12:48:46;20.54;46.81
31443;SHT31;18065;55.876;9.830;2022-12-19T12:51:15;20.51;46.66
31443;SHT31;18065;55.876;9.830;2022-12-19T12:53:45;20.51;46.53
31443;SHT31;18065;55.876;9.830;2022-12-19T12:56:16;20.50;46.74
31443;SHT31;18065;55.876;9.830;2022-12-19T12:59:16;20.47;46.84
31443;SHT31;18065;55.876;9.830;2022-12-19T13:01:49;20.49;46.82
31443;SHT31;18065;55.876;9.830;2022-12-19T13:04:23;20.50;46.78
31443;SHT31;18065;55.876;9.830;2022-12-19T13:07:18;20.49;46.86
31443;SHT31;18065;55.876;9.830;2022-12-19T13:09:53;20.49;46.80
31443;SHT31;18065;55.876;9.830;2022-12-19T13:12:31;20.49;46.78
31443;SHT31;18065;55.876;9.830;2022-12-19T13:15:35;20.43;46.89
31443;SHT31;18065;55.876;9.830;2022-12-19T13:21:07;20.40;46.90
31443;SHT31;18065;55.876;9.830;2022-12-19T13:23:58;20.40;47.01
31443;SHT31;18065;55.876;9.830;2022-12-19T13:26:45;20.44;47.00
31443;SHT31;18065;55.876;9.830;2022-12-19T13:29:37;20.40;47.06
31443;SHT31;18065;55.876;9.830;2022-12-19T13:32:21;20.43;47.02
31443;SHT31;18065;55.876;9.830;2022-12-19T13:34:58;20.41;47.03
31443;SHT31;18065;55.876;9.830;2022-12-19T13:37:31;20.43;47.10
31443;SHT31;18065;55.876;9.830;2022-12-19T13:40:23;20.44;47.10
31443;SHT31;18065;55.876;9.830;2022-12-19T13:43:00;20.43;47.11
31443;SHT31;18065;55.876;9.830;2022-12-19T13:45:47;20.44;47.20
31443;SHT31;18065;55.876;9.830;2022-12-19T13:48:27;20.46;47.21
31443;SHT31;18065;55.876;9.830;2022-12-19T13:50:58;20.46;47.12
31443;SHT31;18065;55.876;9.830;2022-12-19T13:53:28;20.44;47.18
31443;SHT31;18065;55.876;9.830;2022-12-19T13:55:59;20.46;47.17
31443;SHT31;18065;55.876;9.830;2022-12-19T13:58:29;20.46;47.11
31443;SHT31;18065;55.876;9.830;2022-12-19T14:01:01;20.46;47.28
31443;SHT31;18065;55.876;9.830;2022-12-19T14:03:37;20.44;47.38
31443;SHT31;18065;55.876;9.830;2022-12-19T14:06:15;20.44;47.47
31443;SHT31;18065;55.876;9.830;2022-12-19T14:08:48;20.43;47.54
31443;SHT31;18065;55.876;9.830;2022-12-19T14:11:19;20.44;47.56
31443;SHT31;18065;55.876;9.830;2022-12-19T14:13:51;20.43;47.62
31443;SHT31;18065;55.876;9.830;2022-12-19T14:16:33;20.46;47.57
31443;SHT31;18065;55.876;9.830;2022-12-19T14:19:19;20.44;47.54
31443;SHT31;18065;55.876;9.830;2022-12-19T14:21:48;20.47;47.53
31443;SHT31;18065;55.876;9.830;2022-12-19T14:24:18;20.44;47.55
31443;SHT31;18065;55.876;9.830;2022-12-19T14:26:50;20.46;47.48
31443;SHT31;18065;55.876;9.830;2022-12-19T14:29:26;20.47;47.46
31443;SHT31;18065;55.876;9.830;2022-12-19T14:31:55;20.50;47.48
31443;SHT31;18065;55.876;9.830;2022-12-19T14:34:30;20.49;47.63
31443;SHT31;18065;55.876;9.830;2022-12-19T14:36:59;20.50;47.64
31443;SHT31;18065;55.876;9.830;2022-12-19T14:39:31;20.47;47.68
31443;SHT31;18065;55.876;9.830;2022-12-19T14:42:02;20.44;47.61
31443;SHT31;18065;55.876;9.830;2022-12-19T14:44:47;20.46;47.58
31443;SHT31;18065;55.876;9.830;2022-12-19T14:47:21;20.44;47.57
31443;SHT31;18065;55.876;9.830;2022-12-19T14:49:53;20.46;47.55
31443;SHT31;18065;55.876;9.830;2022-12-19T14:52:34;20.44;47.56
31443;SHT31;18065;55.876;9.830;2022-12-19T14:55:13;20.44;47.59
31443;SHT31;18065;55.876;9.830;2022-12-19T14:57:42;20.43;47.54
31443;SHT31;18065;55.876;9.830;2022-12-19T15:00:25;20.43;47.54
31443;SHT31;18065;55.876;9.830;2022-12-19T15:02:57;20.44;47.51
31443;SHT31;18065;55.876;9.830;2022-12-19T15:05:29;20.43;47.53
31443;SHT31;18065;55.876;9.830;2022-12-19T15:07:58;20.41;47.48
31443;SHT31;18065;55.876;9.830;2022-12-19T15:10:30;20.43;47.50
31443;SHT31;18065;55.876;9.830;2022-12-19T15:13:15;20.39;47.50
31443;SHT31;18065;55.876;9.830;2022-12-19T15:15:51;20.43;47.52
31443;SHT31;18065;55.876;9.830;2022-12-19T15:18:22;20.46;47.47
31443;SHT31;18065;55.876;9.830;2022-12-19T15:20:55;20.40;47.68
31443;SHT31;18065;55.876;9.830;2022-12-19T15:23:24;20.41;47.82
31443;SHT31;18065;55.876;9.830;2022-12-19T15:25:55;20.41;47.89
31443;SHT31;18065;55.876;9.830;2022-12-19T15:28:33;20.41;47.86
31443;SHT31;18065;55.876;9.830;2022-12-19T15:31:09;20.41;47.91
31443;SHT31;18065;55.876;9.830;2022-12-19T15:33:39;20.43;47.86
31443;SHT31;18065;55.876;9.830;2022-12-19T15:36:11;20.41;47.82
31443;SHT31;18065;55.876;9.830;2022-12-19T15:38:39;20.43;47.76
31443;SHT31;18065;55.876;9.830;2022-12-19T15:41:08;20.46;47.69
31443;SHT31;18065;55.876;9.830;2022-12-19T15:43:39;20.44;47.70
31443;SHT31;18065;55.876;9.830;2022-12-19T15:46:09;20.44;47.61
31443;SHT31;18065;55.876;9.830;2022-12-19T15:48:42;20.44;47.61
31443;SHT31;18065;55.876;9.830;2022-12-19T15:51:15;20.46;47.56
31443;SHT31;18065;55.876;9.830;2022-12-19T15:53:46;20.47;47.57
31443;SHT31;18065;55.876;9.830;2022-12-19T15:56:23;20.44;47.56
31443;SHT31;18065;55.876;9.830;2022-12-19T15:58:53;20.43;47.55
31443;SHT31;18065;55.876;9.830;2022-12-19T16:01:24;20.46;47.56
31443;SHT31;18065;55.876;9.830;2022-12-19T16:03:54;20.41;47.59
31443;SHT31;18065;55.876;9.830;2022-12-19T16:06:27;20.41;47.59
31443;SHT31;18065;55.876;9.830;2022-12-19T16:08:58;20.41;47.65
31443;SHT31;18065;55.876;9.830;2022-12-19T16:11:27;20.41;47.64
31443;SHT31;18065;55.876;9.830;2022-12-19T16:13:57;20.43;47.65
31443;SHT31;18065;55.876;9.830;2022-12-19T16:16:26;20.41;47.65
31443;SHT31;18065;55.876;9.830;2022-12-19T16:18:54;20.40;47.70